Pireps
You are here: Olympic Virtual Pireps

Flight OLY10006

  • Submitted By: Stavros Sarikas
  • Departure Airport: MALPENSA (LIMC)
  • Arrival Airport: Olbia / Costa Smeralda Airport (LIEO)
  • Aircraft: A320-200 (SX-OAT)
  • Flight Time: 01.05
  • Date Submitted: 26/08/2017
  • Route: UNITA A9 OLETI Z911 MEGER Y16 MILNO G702 BTA
  • Status: Rejected
Flight Details
Gross Revenue:
(116 load / € 71.75 per unit
€ 8, 323.00
Fuel Cost:
(2269 fuel used @ 0.19 / unit)
€ 431.11

Additional Log Information:

View Log

Aircraft Used in flight is Airbus A320 British Airways G-EUUU
14:47 Boarding
14:47 Navigation Lights ON at 780 Feet
14:47 Beacon Lights ON at 780 Feet
14:47 Brakes are On
14:51 Engine 2 Started
14:52 Engine 1 Started
14:55 Flaps 3 Selected at 780ft and 3kts
14:55 Brakes are Released
14:55 Pushing back
14:56 Taxi Lights ON at 780 Feet
14:57 Landing Lights ON at 780 AGL
14:57 Strobe Lights ON at 780 Feet
14:58 You Took off @ 149 Knots and Flaps at Position 3 With a heading of 168 Degrees
Departure Weather LIMC 261120Z 23006KT 160V280 CAVOK 30/16 Q1019 NOSIG
Departure Coordinates 45.6164187432936/ 8.72707107128256
Takeoff Weight=62673KG Fuel Weight=7829KG
14:58 TOC Reached
14:58 Paused
14:58 Landing Gear Up @ 157 Knots and 850 Feet
14:58 Taxi Lights OFF at 870 Feet
14:58 Unpaused
14:59 Flaps 2 Selected at 2240ft and 152kts
14:59 Flaps 0 Selected at 2490ft and 189kts
15:02 Above FL100 you need to switch of the landing lights
15:02 Landing Lights OFF at 10390 AGL
15:39 Landing Lights ON at 9820 AGL
15:47 Flaps 1 Selected at 2740ft and 200kts
15:48 Flaps 3 Selected at 1990ft and 181kts
15:48 Landing Gear Down @ 178 Knots and 1980 Feet
15:49 Flaps 4 Selected at 1950ft and 160kts
15:49 Taxi Lights ON at 1940 Feet
15:49 Flaps 5 Selected at 1920ft and 153kts
15:51 You Landed @ 131 Knots with -632 Vertical Speed With a heading of 235 and with 1.1024 G Force
Arrival Weather: LIEO 261220Z 07010KT 040V100 9999 FEW010 32/22 Q1017
Arrival Coordinates 40.9036121529911/ 9.5271379349882
Landing Weight=60584KG Fuel Weight=5740KG
15:51 Your Landing was very hard
15:51 Taxiing to gate
15:52 Airplane Bounced
15:52 Taxiing to gate
Pirep logged with OA Virtual Tracking 1.0.2.4

Route Map